Praia Lusitana — CUHX4 — position and weather

sailwx.info

Track history (hours):
 
Tides and Currents Weather Stations Pressure Air Temp Water Temp Dewpoint Dewpoint Depression Visibility Wind Speed Wind Dir Waves Ship Positions

Praia Lusitana

Last reported at 2018-Aug-20 16:02 UTC. Time now 2018-Aug-20 16:20 UTC.
Position N 37°48' W 009°10'.

Length 18 m; draft 8.5 m.

Type: Fishing. MMSI: 263413350.

Date/timePositionNaut miles runAvg speedWind from/ knotsBaromVisibWave heightAir tempDewpointWater temp
2018-Aug-20 16:02N 37°48' W 009°10'0 2.8
2018-Aug-20 16:00N 37°48' W 009°10'1 2.9
2018-Aug-20 15:30N 37°49' W 009°10'1 2.6
2018-Aug-20 15:03N 37°50' W 009°11'0 3.7
2018-Aug-20 15:00N 37°50' W 009°11'2 1.9
2018-Aug-20 14:03N 37°48' W 009°11'0 2.9
2018-Aug-20 14:00N 37°48' W 009°11'4 2.7
2018-Aug-20 12:21N 37°44' W 009°10'4 2.8
2018-Aug-20 10:57N 37°47' W 009°11'1 2.7
2018-Aug-20 10:30N 37°49' W 009°12'1 3.2
2018-Aug-20 10:03N 37°50' W 009°11'0 2.3
2018-Aug-20 10:01N 37°50' W 009°11'1 1.3
2018-Aug-20 09:30N 37°49' W 009°11'1 2.8
2018-Aug-20 09:03N 37°48' W 009°10'3 2.9
2018-Aug-20 08:04N 37°46' W 009°08'0 2.6
2018-Aug-20 08:02N 37°46' W 009°08'0 2.7
2018-Aug-20 08:00N 37°45' W 009°08'1 1.2
2018-Aug-20 07:30N 37°45' W 009°07'1 2.9
2018-Aug-20 07:03N 37°47' W 009°08'0 2.8
2018-Aug-20 07:00N 37°47' W 009°08'2 2.8
2018-Aug-20 06:25N 37°48' W 009°09'1 2.9
2018-Aug-20 06:03N 37°49' W 009°10'0 2.8
2018-Aug-20 06:00N 37°49' W 009°10'1 2.7
2018-Aug-20 05:30N 37°51' W 009°10'1 2.2
2018-Aug-20 05:03N 37°51' W 009°11'0 2.1
2018-Aug-20 05:00N 37°51' W 009°11'2 2.0
2018-Aug-20 04:11N 37°53' W 009°12'1 3.2
2018-Aug-20 04:00N 37°53' W 009°12'2 3.2
2018-Aug-20 03:30N 37°55' W 009°12'2 3.2
2018-Aug-20 03:00N 37°57' W 009°12'2 3.2
2018-Aug-20 02:30N 37°58' W 009°11'2 3.2
2018-Aug-20 02:00N 37°60' W 009°11'2 3.2
2018-Aug-20 01:30N 38°01' W 009°10'2 3.3
2018-Aug-20 01:00N 38°03' W 009°09'1 2.8
2018-Aug-20 00:30N 38°04' W 009°09'1 2.6
2018-Aug-20 00:00N 38°05' W 009°09'4 7.2
2018-Aug-19 23:26N 38°03' W 009°05'3 7.5
2018-Aug-19 23:00N 38°01' W 009°02'4 7.6
2018-Aug-19 22:30N 37°59' W 008°58'4 8.1
2018-Aug-19 22:01N 37°56' W 008°54'1 3.0
2018-Aug-19 21:30N 37°57' W 008°52'0 0.0
2018-Aug-19 21:00N 37°57' W 008°52'0 0.0
2018-Aug-19 20:30N 37°57' W 008°52'0 0.0
2018-Aug-19 20:00N 37°57' W 008°52'0 0.0
2018-Aug-19 19:30N 37°57' W 008°52'0 0.0
2018-Aug-19 19:00N 37°57' W 008°52'0 0.0
2018-Aug-19 18:30N 37°57' W 008°52'0 0.0
2018-Aug-19 18:00N 37°57' W 008°52'0 0.0
2018-Aug-19 17:30N 37°57' W 008°52'1 1.3
2018-Aug-19 17:00N 37°57' W 008°53'4 8.1
2018-Aug-19 16:30N 37°55' W 008°57'4 8.4
2018-Aug-19 16:00N 37°54' W 009°02'4 8.7
2018-Aug-19 15:30N 37°52' W 009°08'2 3.6
2018-Aug-19 14:58N 37°52' W 009°10'1 2.8
2018-Aug-19 14:30N 37°51' W 009°10'1 2.9
2018-Aug-19 14:00N 37°49' W 009°10'1 0.2
2018-Aug-19 10:34N 37°49' W 009°09'0 2.2
2018-Aug-19 10:22N 37°49' W 009°10'1 2.7
2018-Aug-19 10:01N 37°50' W 009°11'1 1.2
2018-Aug-19 09:30N 37°50' W 009°10'1 2.9
2018-Aug-19 09:00N 37°48' W 009°10'2 2.9
2018-Aug-19 08:14N 37°46' W 009°09'1 2.9
2018-Aug-19 08:01N 37°45' W 009°08'3 1.7
2018-Aug-19 06:22N 37°48' W 009°09'1 2.8
2018-Aug-19 06:00N 37°49' W 009°09'2 3.1
2018-Aug-19 05:30N 37°51' W 009°10'3 5.2
2018-Aug-19 05:00N 37°53' W 009°12'1 1.3
2018-Aug-19 04:30N 37°54' W 009°12'2 3.2
2018-Aug-19 04:00N 37°55' W 009°12'2 3.1
2018-Aug-19 03:30N 37°57' W 009°12'2 3.1
2018-Aug-19 03:00N 37°58' W 009°11'2 3.1
2018-Aug-19 02:29N 37°60' W 009°11'2 3.2
2018-Aug-19 02:00N 38°01' W 009°10'2 3.2
2018-Aug-19 01:30N 38°03' W 009°09'1 2.8
2018-Aug-19 01:00N 38°04' W 009°09'1 1.1
2018-Aug-19 00:31N 38°05' W 009°09'1 1.2
2018-Aug-19 00:00N 38°04' W 009°09'2 3.2
2018-Aug-18 23:30N 38°02' W 009°09'2 3.1
2018-Aug-18 23:00N 38°01' W 009°10'2 3.1
2018-Aug-18 22:30N 37°60' W 009°11'2 3.2
2018-Aug-18 22:00N 37°58' W 009°11'2 3.1
2018-Aug-18 21:30N 37°57' W 009°12'2 3.1
2018-Aug-18 21:00N 37°55' W 009°12'2 3.2
2018-Aug-18 20:30N 37°53' W 009°12'3 4.4
2018-Aug-18 19:48N 37°50' W 009°11'1 3.0
2018-Aug-18 19:30N 37°50' W 009°10'1 1.7
2018-Aug-18 19:00N 37°49' W 009°09'2 2.8
2018-Aug-18 18:27N 37°48' W 009°09'1 2.9
2018-Aug-18 18:00N 37°46' W 009°08'2 3.5
2018-Aug-18 17:29N 37°45' W 009°07'1 2.1
2018-Aug-18 17:00N 37°45' W 009°08'1 2.8
2018-Aug-18 16:30N 37°46' W 009°09'1 2.8
2018-Aug-18 16:00N 37°48' W 009°10'1 2.7
2018-Aug-18 15:30N 37°49' W 009°11'1 1.9
2018-Aug-18 15:00N 37°50' W 009°11'1 1.0
2018-Aug-18 14:30N 37°49' W 009°11'4 2.8
2018-Aug-18 13:04N 37°46' W 009°08'0 2.9
2018-Aug-18 12:55N 37°45' W 009°08'3 1.5
2018-Aug-18 11:01N 37°48' W 009°10'0 3.0
2018-Aug-18 11:00N 37°48' W 009°10'1 2.8
2018-Aug-18 10:30N 37°49' W 009°11'0 1.0
2018-Aug-18 09:59N 37°49' W 009°11'0 1.0
2018-Aug-18 09:30N 37°49' W 009°10'1 0.4
2018-Aug-18 06:10N 37°48' W 009°09'0 2.8
2018-Aug-18 06:00N 37°49' W 009°09'2 3.1
2018-Aug-18 05:30N 37°50' W 009°10'3 6.4
2018-Aug-18 05:00N 37°48' W 009°13'0 1.0
2018-Aug-18 04:30N 37°47' W 009°12'1 0.1
2018-Aug-17 20:25N 37°48' W 009°12'2 3.8
2018-Aug-17 19:59N 37°49' W 009°13'1 3.0
2018-Aug-17 19:31N 37°50' W 009°11'1 2.4
2018-Aug-17 19:00N 37°49' W 009°10'4 2.9
2018-Aug-17 17:42N 37°46' W 009°08'1 2.6
2018-Aug-17 17:17N 37°45' W 009°07'1 2.9
2018-Aug-17 17:00N 37°46' W 009°08'2 2.7
2018-Aug-17 16:17N 37°47' W 009°09'1 2.8
2018-Aug-17 15:59N 37°48' W 009°09'1 2.9
2018-Aug-17 15:30N 37°50' W 009°10'0 0.9
2018-Aug-17 15:00N 37°50' W 009°10'1 1.4
2018-Aug-17 14:30N 37°49' W 009°10'4 2.6
2018-Aug-17 13:03N 37°46' W 009°08'3 1.2
2018-Aug-17 10:48N 37°48' W 009°10'1 2.8
2018-Aug-17 10:29N 37°49' W 009°11'2 3.2
2018-Aug-17 10:00N 37°50' W 009°11'0 0.3
2018-Aug-17 09:23N 37°50' W 009°11'2 0.6
2018-Aug-17 05:56N 37°48' W 009°09'1 2.5
2018-Aug-17 05:30N 37°49' W 009°10'1 1.8
2018-Aug-17 04:56N 37°50' W 009°10'4 6.0
2018-Aug-17 04:15N 37°52' W 009°05'2 6.4
2018-Aug-17 04:00N 37°53' W 009°03'3 6.8
2018-Aug-17 03:30N 37°54' W 008°59'4 7.0
2018-Aug-17 03:00N 37°55' W 008°55'3 6.3
2018-Aug-17 02:31N 37°57' W 008°52'0 0.3
2018-Aug-17 02:00N 37°57' W 008°52'0 0.0
2018-Aug-17 01:30N 37°57' W 008°52'0 0.0
2018-Aug-17 01:00N 37°57' W 008°52'0 0.0
2018-Aug-17 00:30N 37°57' W 008°52'0 0.0
2018-Aug-17 00:00N 37°57' W 008°52'0 0.0
2018-Aug-16 23:30N 37°57' W 008°52'0 0.0
2018-Aug-16 23:00N 37°57' W 008°52'0 0.0
2018-Aug-16 22:30N 37°57' W 008°52'0 0.0
2018-Aug-16 22:00N 37°57' W 008°52'0 0.0
2018-Aug-16 21:30N 37°57' W 008°52'0 0.2
2018-Aug-16 21:00N 37°57' W 008°52'0 0.0
2018-Aug-16 20:30N 37°57' W 008°52'0 0.0
2018-Aug-16 20:00N 37°57' W 008°52'0 0.2
2018-Aug-16 19:31N 37°57' W 008°52'3 6.1
2018-Aug-16 19:01N 37°55' W 008°55'4 8.4
2018-Aug-16 18:31N 37°54' W 009°00'4 8.5
2018-Aug-16 18:01N 37°53' W 009°05'4 7.7
2018-Aug-16 17:31N 37°51' W 009°10'1 1.7
2018-Aug-16 16:59N 37°51' W 009°11'1 2.8
2018-Aug-16 16:30N 37°50' W 009°11'1 2.8
2018-Aug-16 16:00N 37°48' W 009°11'2 0.4
2018-Aug-16 11:42N 37°50' W 009°13'1 2.8
2018-Aug-16 11:31N 37°49' W 009°13'2 0.3
2018-Aug-16 06:12N 37°48' W 009°11'1 2.7
2018-Aug-16 05:59N 37°48' W 009°11'2 3.2
2018-Aug-16 05:29N 37°50' W 009°11'1 1.1
2018-Aug-16 05:00N 37°51' W 009°11'4 4.0
2018-Aug-16 03:56N 37°52' W 009°06'3 6.3
2018-Aug-16 03:30N 37°53' W 009°03'4 7.1
2018-Aug-16 03:00N 37°54' W 008°59'4 7.7
2018-Aug-16 02:30N 37°56' W 008°54'2 4.2
2018-Aug-16 02:00N 37°57' W 008°52'0 0.0
2018-Aug-16 01:30N 37°57' W 008°52'0 0.0
2018-Aug-16 01:00N 37°57' W 008°52'0 0.0
2018-Aug-16 00:30N 37°57' W 008°52'0 0.0
2018-Aug-16 00:00N 37°57' W 008°52'0 0.0
2018-Aug-15 23:30N 37°57' W 008°52'0 0.0
2018-Aug-15 23:00N 37°57' W 008°52'0 0.0
2018-Aug-15 22:30N 37°57' W 008°52'0 0.0
2018-Aug-15 22:00N 37°57' W 008°52'0 0.0
2018-Aug-15 21:30N 37°57' W 008°52'0 0.0
2018-Aug-15 21:00N 37°57' W 008°52'0 0.0
2018-Aug-15 20:30N 37°57' W 008°52'0 0.0
2018-Aug-15 20:00N 37°57' W 008°52'0 0.0
2018-Aug-15 19:30N 37°57' W 008°52'0 0.0
2018-Aug-15 19:00N 37°57' W 008°52'0 0.1
2018-Aug-15 18:30N 37°57' W 008°52'3 5.7
2018-Aug-15 18:00N 37°55' W 008°55'4 8.7
2018-Aug-15 17:30N 37°54' W 009°00'4 8.8
2018-Aug-15 17:00N 37°52' W 009°06'4 8.2
2018-Aug-15 16:30N 37°51' W 009°10'1 1.3
2018-Aug-15 16:00N 37°51' W 009°11'1 2.8
2018-Aug-15 15:30N 37°49' W 009°11'11 0.9
2018-Aug-15 03:01N 37°53' W 008°58'0 7.8
2018-Aug-15 03:00N 37°53' W 008°58'4 8.0
2018-Aug-15 02:30N 37°55' W 008°54'2 4.3
2018-Aug-15 02:00N 37°57' W 008°52'0 0.0
2018-Aug-15 01:31N 37°57' W 008°52'0 0.0
2018-Aug-15 01:01N 37°57' W 008°52'0 0.0
2018-Aug-15 00:30N 37°57' W 008°52'0 0.0
2018-Aug-15 00:01N 37°57' W 008°52'0 0.0
2018-Aug-14 23:31N 37°57' W 008°52'0 0.0
2018-Aug-14 23:01N 37°57' W 008°52'0 0.0
2018-Aug-14 22:30N 37°57' W 008°52'0 0.0
2018-Aug-14 22:01N 37°57' W 008°52'0 0.0
2018-Aug-14 21:30N 37°57' W 008°52'0 0.0
2018-Aug-14 21:00N 37°57' W 008°52'3 5.2
2018-Aug-14 20:31N 37°55' W 008°54'4 8.0
2018-Aug-14 20:01N 37°53' W 008°59'4 8.0
2018-Aug-14 19:31N 37°52' W 009°03'7 0.9
2018-Aug-14 11:12N 37°48' W 009°11'0 2.4
2018-Aug-14 11:00N 37°49' W 009°12'2 3.1
2018-Aug-14 10:29N 37°50' W 009°10'2 0.4
2018-Aug-14 06:28N 37°48' W 009°09'1 2.7
2018-Aug-14 06:00N 37°49' W 009°10'3 5.5
2018-Aug-14 05:30N 37°52' W 009°11'2 5.0
2018-Aug-14 05:00N 37°54' W 009°12'1 1.6
2018-Aug-14 04:30N 37°55' W 009°12'2 3.1
2018-Aug-14 03:54N 37°57' W 009°12'1 3.2
2018-Aug-14 03:30N 37°58' W 009°11'2 3.2
2018-Aug-14 03:00N 37°60' W 009°11'2 3.2
2018-Aug-14 02:30N 38°01' W 009°10'2 3.2
2018-Aug-14 02:00N 38°02' W 009°09'2 3.0
2018-Aug-14 01:30N 38°04' W 009°09'1 2.9
2018-Aug-14 01:00N 38°05' W 009°09'0 0.9
2018-Aug-14 00:30N 38°05' W 009°09'2 3.2
2018-Aug-14 00:00N 38°04' W 009°09'2 3.1
2018-Aug-13 23:30N 38°02' W 009°09'2 3.0
2018-Aug-13 23:00N 38°01' W 009°10'2 3.1
2018-Aug-13 22:30N 37°59' W 009°11'2 3.0
2018-Aug-13 22:00N 37°58' W 009°11'2 3.2
2018-Aug-13 21:30N 37°56' W 009°12'2 3.7
2018-Aug-13 21:00N 37°54' W 009°12'4 7.4
2018-Aug-13 20:30N 37°51' W 009°11'2 4.2
2018-Aug-13 20:00N 37°49' W 009°10'0 0.9
2018-Aug-13 19:30N 37°49' W 009°10'2 0.6
2018-Aug-13 16:27N 37°47' W 009°10'1 2.7
2018-Aug-13 16:00N 37°48' W 009°10'2 3.1
2018-Aug-13 15:29N 37°49' W 009°11'1 1.2
2018-Aug-13 14:55N 37°50' W 009°11'1 1.4
2018-Aug-13 14:29N 37°50' W 009°11'5 1.8
2018-Aug-13 11:57N 37°46' W 009°08'3 2.8
2018-Aug-13 10:51N 37°49' W 009°09'1 3.4
2018-Aug-13 10:29N 37°50' W 009°10'0 0.5
2018-Aug-13 10:00N 37°50' W 009°10'1 0.4
2018-Aug-13 06:00N 37°48' W 009°09'2 3.2
2018-Aug-13 05:30N 37°50' W 009°10'3 6.0
2018-Aug-13 05:00N 37°48' W 009°14'3 2.2
2018-Aug-13 03:33N 37°52' W 009°13'0 3.0
2018-Aug-13 03:30N 37°52' W 009°13'2 3.1
2018-Aug-13 03:01N 37°53' W 009°14'2 3.0
2018-Aug-13 02:30N 37°55' W 009°14'3 3.1
2018-Aug-13 01:34N 37°58' W 009°13'0 3.2
2018-Aug-13 01:31N 37°58' W 009°13'2 3.1
2018-Aug-13 01:00N 37°59' W 009°12'2 3.1
2018-Aug-13 00:27N 38°01' W 009°12'3 3.1
2018-Aug-12 23:33N 38°03' W 009°10'0 3.1
2018-Aug-12 23:29N 38°04' W 009°10'2 4.3
2018-Aug-12 23:01N 38°05' W 009°09'3 6.0
2018-Aug-12 22:30N 38°05' W 009°05'4 8.1
2018-Aug-12 22:00N 38°03' W 009°01'4 7.8
2018-Aug-12 21:31N 37°60' W 008°58'4 7.0
2018-Aug-12 21:00N 37°57' W 008°55'2 4.0
2018-Aug-12 20:31N 37°57' W 008°52'0 0.0
2018-Aug-12 20:00N 37°57' W 008°52'0 0.0
2018-Aug-12 19:30N 37°57' W 008°52'0 0.0
2018-Aug-12 19:01N 37°57' W 008°52'0 0.0
2018-Aug-12 18:31N 37°57' W 008°52'0 0.0
2018-Aug-12 18:01N 37°57' W 008°52'3 6.1
2018-Aug-12 17:30N 37°55' W 008°55'4 8.0
2018-Aug-12 17:01N 37°54' W 009°00'4 7.7
2018-Aug-12 16:30N 37°53' W 009°05'4 7.5
2018-Aug-12 16:01N 37°52' W 009°10'1 1.0
2018-Aug-12 15:30N 37°52' W 009°10'1 2.8
2018-Aug-12 15:01N 37°51' W 009°10'1 2.8
2018-Aug-12 14:30N 37°50' W 009°10'2 2.9
2018-Aug-12 13:57N 37°48' W 009°09'2 1.0
2018-Aug-12 11:46N 37°46' W 009°09'1 2.8
2018-Aug-12 11:20N 37°47' W 009°10'1 2.8
2018-Aug-12 11:01N 37°48' W 009°10'2 3.1
2018-Aug-12 10:30N 37°49' W 009°11'1 1.3
2018-Aug-12 10:00N 37°50' W 009°11'1 2.3
2018-Aug-12 09:30N 37°49' W 009°11'1 0.3
2018-Aug-12 06:16N 37°48' W 009°09'1 2.6
2018-Aug-12 05:59N 37°49' W 009°10'1 2.4
2018-Aug-12 05:30N 37°50' W 009°11'0 0.4
2018-Aug-12 04:57N 37°50' W 009°11'1 3.1
2018-Aug-12 04:30N 37°51' W 009°11'2 3.1
2018-Aug-12 04:00N 37°53' W 009°12'2 3.0
2018-Aug-12 03:30N 37°54' W 009°12'2 3.1
2018-Aug-12 03:00N 37°56' W 009°12'2 3.1
2018-Aug-12 02:30N 37°57' W 009°12'2 3.2
2018-Aug-12 02:00N 37°59' W 009°11'2 3.1
2018-Aug-12 01:30N 38°00' W 009°10'1 2.9
2018-Aug-12 01:01N 38°02' W 009°09'1 2.1
2018-Aug-12 00:30N 38°03' W 009°09'0 0.8
2018-Aug-12 00:00N 38°03' W 009°10'2 3.1
2018-Aug-11 23:30N 38°01' W 009°10'2 3.1
2018-Aug-11 23:00N 37°60' W 009°11'1 3.0
2018-Aug-11 22:30N 37°58' W 009°12'2 3.0
2018-Aug-11 22:00N 37°57' W 009°12'1 3.0
2018-Aug-11 21:30N 37°55' W 009°13'1 2.9
2018-Aug-11 21:00N 37°54' W 009°13'1 2.9
2018-Aug-11 20:30N 37°53' W 009°12'2 4.5
2018-Aug-11 19:58N 37°51' W 009°10'0 0.9
2018-Aug-11 19:30N 37°51' W 009°10'1 2.8
2018-Aug-11 19:00N 37°49' W 009°10'2 2.8
2018-Aug-11 18:26N 37°48' W 009°09'1 2.9
2018-Aug-11 17:58N 37°46' W 009°08'1 2.0
2018-Aug-11 17:30N 37°45' W 009°09'1 2.8
2018-Aug-11 17:00N 37°47' W 009°10'1 2.8
2018-Aug-11 16:28N 37°48' W 009°10'1 2.6
2018-Aug-11 16:00N 37°49' W 009°11'1 2.6
2018-Aug-11 15:27N 37°51' W 009°11'1 1.5
2018-Aug-11 15:00N 37°50' W 009°11'1 2.8
2018-Aug-11 14:30N 37°49' W 009°10'1 2.8
2018-Aug-11 14:00N 37°47' W 009°10'1 2.9
2018-Aug-11 13:29N 37°46' W 009°09'1 2.7
2018-Aug-11 13:00N 37°45' W 009°08'1 1.0
2018-Aug-11 12:28N 37°45' W 009°07'1 2.8
2018-Aug-11 12:00N 37°46' W 009°08'2 2.8
2018-Aug-11 11:18N 37°48' W 009°09'1 2.8
2018-Aug-11 11:00N 37°49' W 009°09'2 3.4
2018-Aug-11 10:30N 37°50' W 009°10'0 0.7
2018-Aug-11 10:01N 37°50' W 009°10'3 0.8
2018-Aug-11 06:42N 37°47' W 009°09'1 2.8
2018-Aug-11 06:30N 37°48' W 009°09'1 2.8
2018-Aug-11 06:00N 37°49' W 009°10'1 1.1
2018-Aug-11 05:18N 37°50' W 009°11'0 0.6
2018-Aug-11 04:56N 37°50' W 009°11'1 3.1
2018-Aug-11 04:30N 37°51' W 009°11'1 3.0
2018-Aug-11 04:00N 37°53' W 009°12'2 3.1
2018-Aug-11 03:30N 37°54' W 009°12'2 3.0
2018-Aug-11 03:00N 37°56' W 009°12'1 3.0
2018-Aug-11 02:31N 37°57' W 009°12'2 3.0
2018-Aug-11 02:00N 37°59' W 009°11'2 3.1
2018-Aug-11 01:30N 37°60' W 009°10'2 3.6
2018-Aug-11 01:00N 38°02' W 009°09'0 0.5
2018-Aug-11 00:30N 38°02' W 009°09'1 1.4
2018-Aug-11 00:00N 38°01' W 009°09'1 3.1
2018-Aug-10 23:30N 37°60' W 009°10'1 3.0
2018-Aug-10 23:00N 37°58' W 009°11'1 2.9
2018-Aug-10 22:30N 37°57' W 009°12'1 2.8
2018-Aug-10 22:00N 37°56' W 009°12'1 2.9
2018-Aug-10 21:30N 37°54' W 009°12'2 3.1
2018-Aug-10 21:01N 37°53' W 009°12'2 3.0
2018-Aug-10 20:30N 37°51' W 009°11'1 3.0
2018-Aug-10 20:00N 37°50' W 009°11'1 1.8
2018-Aug-10 19:30N 37°51' W 009°11'0 0.4
2018-Aug-10 19:00N 37°51' W 009°11'1 2.6
2018-Aug-10 18:30N 37°49' W 009°11'1 2.7
2018-Aug-10 18:00N 37°48' W 009°10'2 2.7
2018-Aug-10 17:21N 37°46' W 009°09'1 2.7
2018-Aug-10 17:00N 37°46' W 009°09'2 2.9
2018-Aug-10 16:27N 37°45' W 009°07'1 2.9
2018-Aug-10 16:00N 37°46' W 009°08'  
Track history (hours):
 
Tides and Currents Weather Stations Pressure Air Temp Water Temp Dewpoint Dewpoint Depression Visibility Wind Speed Wind Dir Waves Ship Positions

Praia Lusitana

Last reported at 2018-Aug-20 16:02 UTC. Time now 2018-Aug-20 16:20 UTC.
Position N 37°48' W 009°10'.

Length 18 m; draft 8.5 m.

Type: Fishing. MMSI: 263413350.

Date/timePositionNaut miles runAvg speedWind from/ knotsBaromVisibWave heightAir tempDewpointWater temp
2018-Aug-20 16:02N 37°48' W 009°10'0 2.8
2018-Aug-20 16:00N 37°48' W 009°10'1 2.9
2018-Aug-20 15:30N 37°49' W 009°10'1 2.6
2018-Aug-20 15:03N 37°50' W 009°11'0 3.7
2018-Aug-20 15:00N 37°50' W 009°11'2 1.9
2018-Aug-20 14:03N 37°48' W 009°11'0 2.9
2018-Aug-20 14:00N 37°48' W 009°11'4 2.7
2018-Aug-20 12:21N 37°44' W 009°10'4 2.8
2018-Aug-20 10:57N 37°47' W 009°11'1 2.7
2018-Aug-20 10:30N 37°49' W 009°12'1 3.2
2018-Aug-20 10:03N 37°50' W 009°11'0 2.3
2018-Aug-20 10:01N 37°50' W 009°11'1 1.3
2018-Aug-20 09:30N 37°49' W 009°11'1 2.8
2018-Aug-20 09:03N 37°48' W 009°10'3 2.9
2018-Aug-20 08:04N 37°46' W 009°08'0 2.6
2018-Aug-20 08:02N 37°46' W 009°08'0 2.7
2018-Aug-20 08:00N 37°45' W 009°08'1 1.2
2018-Aug-20 07:30N 37°45' W 009°07'1 2.9
2018-Aug-20 07:03N 37°47' W 009°08'0 2.8
2018-Aug-20 07:00N 37°47' W 009°08'2 2.8
2018-Aug-20 06:25N 37°48' W 009°09'1 2.9
2018-Aug-20 06:03N 37°49' W 009°10'0 2.8
2018-Aug-20 06:00N 37°49' W 009°10'1 2.7
2018-Aug-20 05:30N 37°51' W 009°10'1 2.2
2018-Aug-20 05:03N 37°51' W 009°11'0 2.1
2018-Aug-20 05:00N 37°51' W 009°11'2 2.0
2018-Aug-20 04:11N 37°53' W 009°12'1 3.2
2018-Aug-20 04:00N 37°53' W 009°12'2 3.2
2018-Aug-20 03:30N 37°55' W 009°12'2 3.2
2018-Aug-20 03:00N 37°57' W 009°12'2 3.2
2018-Aug-20 02:30N 37°58' W 009°11'2 3.2
2018-Aug-20 02:00N 37°60' W 009°11'2 3.2
2018-Aug-20 01:30N 38°01' W 009°10'2 3.3
2018-Aug-20 01:00N 38°03' W 009°09'1 2.8
2018-Aug-20 00:30N 38°04' W 009°09'1 2.6
2018-Aug-20 00:00N 38°05' W 009°09'4 7.2
2018-Aug-19 23:26N 38°03' W 009°05'3 7.5
2018-Aug-19 23:00N 38°01' W 009°02'4 7.6
2018-Aug-19 22:30N 37°59' W 008°58'4 8.1
2018-Aug-19 22:01N 37°56' W 008°54'1 3.0
2018-Aug-19 21:30N 37°57' W 008°52'0 0.0
2018-Aug-19 21:00N 37°57' W 008°52'0 0.0
2018-Aug-19 20:30N 37°57' W 008°52'0 0.0
2018-Aug-19 20:00N 37°57' W 008°52'0 0.0
2018-Aug-19 19:30N 37°57' W 008°52'0 0.0
2018-Aug-19 19:00N 37°57' W 008°52'0 0.0
2018-Aug-19 18:30N 37°57' W 008°52'0 0.0
2018-Aug-19 18:00N 37°57' W 008°52'0 0.0
2018-Aug-19 17:30N 37°57' W 008°52'1 1.3
2018-Aug-19 17:00N 37°57' W 008°53'4 8.1
2018-Aug-19 16:30N 37°55' W 008°57'4 8.4
2018-Aug-19 16:00N 37°54' W 009°02'4 8.7
2018-Aug-19 15:30N 37°52' W 009°08'2 3.6
2018-Aug-19 14:58N 37°52' W 009°10'1 2.8
2018-Aug-19 14:30N 37°51' W 009°10'1 2.9
2018-Aug-19 14:00N 37°49' W 009°10'1 0.2
2018-Aug-19 10:34N 37°49' W 009°09'0 2.2
2018-Aug-19 10:22N 37°49' W 009°10'1 2.7
2018-Aug-19 10:01N 37°50' W 009°11'1 1.2
2018-Aug-19 09:30N 37°50' W 009°10'1 2.9
2018-Aug-19 09:00N 37°48' W 009°10'2 2.9
2018-Aug-19 08:14N 37°46' W 009°09'1 2.9
2018-Aug-19 08:01N 37°45' W 009°08'3 1.7
2018-Aug-19 06:22N 37°48' W 009°09'1 2.8
2018-Aug-19 06:00N 37°49' W 009°09'2 3.1
2018-Aug-19 05:30N 37°51' W 009°10'3 5.2
2018-Aug-19 05:00N 37°53' W 009°12'1 1.3
2018-Aug-19 04:30N 37°54' W 009°12'2 3.2
2018-Aug-19 04:00N 37°55' W 009°12'2 3.1
2018-Aug-19 03:30N 37°57' W 009°12'2 3.1
2018-Aug-19 03:00N 37°58' W 009°11'2 3.1
2018-Aug-19 02:29N 37°60' W 009°11'2 3.2
2018-Aug-19 02:00N 38°01' W 009°10'2 3.2
2018-Aug-19 01:30N 38°03' W 009°09'1 2.8
2018-Aug-19 01:00N 38°04' W 009°09'1 1.1
2018-Aug-19 00:31N 38°05' W 009°09'1 1.2
2018-Aug-19 00:00N 38°04' W 009°09'2 3.2
2018-Aug-18 23:30N 38°02' W 009°09'2 3.1
2018-Aug-18 23:00N 38°01' W 009°10'2 3.1
2018-Aug-18 22:30N 37°60' W 009°11'2 3.2
2018-Aug-18 22:00N 37°58' W 009°11'2 3.1
2018-Aug-18 21:30N 37°57' W 009°12'2 3.1
2018-Aug-18 21:00N 37°55' W 009°12'2 3.2
2018-Aug-18 20:30N 37°53' W 009°12'3 4.4
2018-Aug-18 19:48N 37°50' W 009°11'1 3.0
2018-Aug-18 19:30N 37°50' W 009°10'1 1.7
2018-Aug-18 19:00N 37°49' W 009°09'2 2.8
2018-Aug-18 18:27N 37°48' W 009°09'1 2.9
2018-Aug-18 18:00N 37°46' W 009°08'2 3.5
2018-Aug-18 17:29N 37°45' W 009°07'1 2.1
2018-Aug-18 17:00N 37°45' W 009°08'1 2.8
2018-Aug-18 16:30N 37°46' W 009°09'1 2.8
2018-Aug-18 16:00N 37°48' W 009°10'1 2.7
2018-Aug-18 15:30N 37°49' W 009°11'1 1.9
2018-Aug-18 15:00N 37°50' W 009°11'1 1.0
2018-Aug-18 14:30N 37°49' W 009°11'4 2.8
2018-Aug-18 13:04N 37°46' W 009°08'0 2.9
2018-Aug-18 12:55N 37°45' W 009°08'3 1.5
2018-Aug-18 11:01N 37°48' W 009°10'0 3.0
2018-Aug-18 11:00N 37°48' W 009°10'1 2.8
2018-Aug-18 10:30N 37°49' W 009°11'0 1.0
2018-Aug-18 09:59N 37°49' W 009°11'0 1.0
2018-Aug-18 09:30N 37°49' W 009°10'1 0.4
2018-Aug-18 06:10N 37°48' W 009°09'0 2.8
2018-Aug-18 06:00N 37°49' W 009°09'2 3.1
2018-Aug-18 05:30N 37°50' W 009°10'3 6.4
2018-Aug-18 05:00N 37°48' W 009°13'0 1.0
2018-Aug-18 04:30N 37°47' W 009°12'1 0.1
2018-Aug-17 20:25N 37°48' W 009°12'2 3.8
2018-Aug-17 19:59N 37°49' W 009°13'1 3.0
2018-Aug-17 19:31N 37°50' W 009°11'1 2.4
2018-Aug-17 19:00N 37°49' W 009°10'4 2.9
2018-Aug-17 17:42N 37°46' W 009°08'1 2.6
2018-Aug-17 17:17N 37°45' W 009°07'1 2.9
2018-Aug-17 17:00N 37°46' W 009°08'2 2.7
2018-Aug-17 16:17N 37°47' W 009°09'1 2.8
2018-Aug-17 15:59N 37°48' W 009°09'1 2.9
2018-Aug-17 15:30N 37°50' W 009°10'0 0.9
2018-Aug-17 15:00N 37°50' W 009°10'1 1.4
2018-Aug-17 14:30N 37°49' W 009°10'4 2.6
2018-Aug-17 13:03N 37°46' W 009°08'3 1.2
2018-Aug-17 10:48N 37°48' W 009°10'1 2.8
2018-Aug-17 10:29N 37°49' W 009°11'2 3.2
2018-Aug-17 10:00N 37°50' W 009°11'0 0.3
2018-Aug-17 09:23N 37°50' W 009°11'2 0.6
2018-Aug-17 05:56N 37°48' W 009°09'1 2.5
2018-Aug-17 05:30N 37°49' W 009°10'1 1.8
2018-Aug-17 04:56N 37°50' W 009°10'4 6.0
2018-Aug-17 04:15N 37°52' W 009°05'2 6.4
2018-Aug-17 04:00N 37°53' W 009°03'3 6.8
2018-Aug-17 03:30N 37°54' W 008°59'4 7.0
2018-Aug-17 03:00N 37°55' W 008°55'3 6.3
2018-Aug-17 02:31N 37°57' W 008°52'0 0.3
2018-Aug-17 02:00N 37°57' W 008°52'0 0.0
2018-Aug-17 01:30N 37°57' W 008°52'0 0.0
2018-Aug-17 01:00N 37°57' W 008°52'0 0.0
2018-Aug-17 00:30N 37°57' W 008°52'0 0.0
2018-Aug-17 00:00N 37°57' W 008°52'0 0.0
2018-Aug-16 23:30N 37°57' W 008°52'0 0.0
2018-Aug-16 23:00N 37°57' W 008°52'0 0.0
2018-Aug-16 22:30N 37°57' W 008°52'0 0.0
2018-Aug-16 22:00N 37°57' W 008°52'0 0.0
2018-Aug-16 21:30N 37°57' W 008°52'0 0.2
2018-Aug-16 21:00N 37°57' W 008°52'0 0.0
2018-Aug-16 20:30N 37°57' W 008°52'0 0.0
2018-Aug-16 20:00N 37°57' W 008°52'0 0.2
2018-Aug-16 19:31N 37°57' W 008°52'3 6.1
2018-Aug-16 19:01N 37°55' W 008°55'4 8.4
2018-Aug-16 18:31N 37°54' W 009°00'4 8.5
2018-Aug-16 18:01N 37°53' W 009°05'4 7.7
2018-Aug-16 17:31N 37°51' W 009°10'1 1.7
2018-Aug-16 16:59N 37°51' W 009°11'1 2.8
2018-Aug-16 16:30N 37°50' W 009°11'1 2.8
2018-Aug-16 16:00N 37°48' W 009°11'2 0.4
2018-Aug-16 11:42N 37°50' W 009°13'1 2.8
2018-Aug-16 11:31N 37°49' W 009°13'2 0.3
2018-Aug-16 06:12N 37°48' W 009°11'1 2.7
2018-Aug-16 05:59N 37°48' W 009°11'2 3.2
2018-Aug-16 05:29N 37°50' W 009°11'1 1.1
2018-Aug-16 05:00N 37°51' W 009°11'4 4.0
2018-Aug-16 03:56N 37°52' W 009°06'3 6.3
2018-Aug-16 03:30N 37°53' W 009°03'4 7.1
2018-Aug-16 03:00N 37°54' W 008°59'4 7.7
2018-Aug-16 02:30N 37°56' W 008°54'2 4.2
2018-Aug-16 02:00N 37°57' W 008°52'0 0.0
2018-Aug-16 01:30N 37°57' W 008°52'0 0.0
2018-Aug-16 01:00N 37°57' W 008°52'0 0.0
2018-Aug-16 00:30N 37°57' W 008°52'0 0.0
2018-Aug-16 00:00N 37°57' W 008°52'0 0.0
2018-Aug-15 23:30N 37°57' W 008°52'0 0.0
2018-Aug-15 23:00N 37°57' W 008°52'0 0.0
2018-Aug-15 22:30N 37°57' W 008°52'0 0.0
2018-Aug-15 22:00N 37°57' W 008°52'0 0.0
2018-Aug-15 21:30N 37°57' W 008°52'0 0.0
2018-Aug-15 21:00N 37°57' W 008°52'0 0.0
2018-Aug-15 20:30N 37°57' W 008°52'0 0.0
2018-Aug-15 20:00N 37°57' W 008°52'0 0.0
2018-Aug-15 19:30N 37°57' W 008°52'0 0.0
2018-Aug-15 19:00N 37°57' W 008°52'0 0.1
2018-Aug-15 18:30N 37°57' W 008°52'3 5.7
2018-Aug-15 18:00N 37°55' W 008°55'4 8.7
2018-Aug-15 17:30N 37°54' W 009°00'4 8.8
2018-Aug-15 17:00N 37°52' W 009°06'4 8.2
2018-Aug-15 16:30N 37°51' W 009°10'1 1.3
2018-Aug-15 16:00N 37°51' W 009°11'1 2.8
2018-Aug-15 15:30N 37°49' W 009°11'11 0.9
2018-Aug-15 03:01N 37°53' W 008°58'0 7.8
2018-Aug-15 03:00N 37°53' W 008°58'4 8.0
2018-Aug-15 02:30N 37°55' W 008°54'2 4.3
2018-Aug-15 02:00N 37°57' W 008°52'0 0.0
2018-Aug-15 01:31N 37°57' W 008°52'0 0.0
2018-Aug-15 01:01N 37°57' W 008°52'0 0.0
2018-Aug-15 00:30N 37°57' W 008°52'0 0.0
2018-Aug-15 00:01N 37°57' W 008°52'0 0.0
2018-Aug-14 23:31N 37°57' W 008°52'0 0.0
2018-Aug-14 23:01N 37°57' W 008°52'0 0.0
2018-Aug-14 22:30N 37°57' W 008°52'0 0.0
2018-Aug-14 22:01N 37°57' W 008°52'0 0.0
2018-Aug-14 21:30N 37°57' W 008°52'0 0.0
2018-Aug-14 21:00N 37°57' W 008°52'3 5.2
2018-Aug-14 20:31N 37°55' W 008°54'4 8.0
2018-Aug-14 20:01N 37°53' W 008°59'4 8.0
2018-Aug-14 19:31N 37°52' W 009°03'7 0.9
2018-Aug-14 11:12N 37°48' W 009°11'0 2.4
2018-Aug-14 11:00N 37°49' W 009°12'2 3.1
2018-Aug-14 10:29N 37°50' W 009°10'2 0.4
2018-Aug-14 06:28N 37°48' W 009°09'1 2.7
2018-Aug-14 06:00N 37°49' W 009°10'3 5.5
2018-Aug-14 05:30N 37°52' W 009°11'2 5.0
2018-Aug-14 05:00N 37°54' W 009°12'1 1.6
2018-Aug-14 04:30N 37°55' W 009°12'2 3.1
2018-Aug-14 03:54N 37°57' W 009°12'1 3.2
2018-Aug-14 03:30N 37°58' W 009°11'2 3.2
2018-Aug-14 03:00N 37°60' W 009°11'2 3.2
2018-Aug-14 02:30N 38°01' W 009°10'2 3.2
2018-Aug-14 02:00N 38°02' W 009°09'2 3.0
2018-Aug-14 01:30N 38°04' W 009°09'1 2.9
2018-Aug-14 01:00N 38°05' W 009°09'0 0.9
2018-Aug-14 00:30N 38°05' W 009°09'2 3.2
2018-Aug-14 00:00N 38°04' W 009°09'2 3.1
2018-Aug-13 23:30N 38°02' W 009°09'2 3.0
2018-Aug-13 23:00N 38°01' W 009°10'2 3.1
2018-Aug-13 22:30N 37°59' W 009°11'2 3.0
2018-Aug-13 22:00N 37°58' W 009°11'2 3.2
2018-Aug-13 21:30N 37°56' W 009°12'2 3.7
2018-Aug-13 21:00N 37°54' W 009°12'4 7.4
2018-Aug-13 20:30N 37°51' W 009°11'2 4.2
2018-Aug-13 20:00N 37°49' W 009°10'0 0.9
2018-Aug-13 19:30N 37°49' W 009°10'2 0.6
2018-Aug-13 16:27N 37°47' W 009°10'1 2.7
2018-Aug-13 16:00N 37°48' W 009°10'2 3.1
2018-Aug-13 15:29N 37°49' W 009°11'1 1.2
2018-Aug-13 14:55N 37°50' W 009°11'1 1.4
2018-Aug-13 14:29N 37°50' W 009°11'5 1.8
2018-Aug-13 11:57N 37°46' W 009°08'3 2.8
2018-Aug-13 10:51N 37°49' W 009°09'1 3.4
2018-Aug-13 10:29N 37°50' W 009°10'0 0.5
2018-Aug-13 10:00N 37°50' W 009°10'1 0.4
2018-Aug-13 06:00N 37°48' W 009°09'2 3.2
2018-Aug-13 05:30N 37°50' W 009°10'3 6.0
2018-Aug-13 05:00N 37°48' W 009°14'3 2.2
2018-Aug-13 03:33N 37°52' W 009°13'0 3.0
2018-Aug-13 03:30N 37°52' W 009°13'2 3.1
2018-Aug-13 03:01N 37°53' W 009°14'2 3.0
2018-Aug-13 02:30N 37°55' W 009°14'3 3.1
2018-Aug-13 01:34N 37°58' W 009°13'0 3.2
2018-Aug-13 01:31N 37°58' W 009°13'2 3.1
2018-Aug-13 01:00N 37°59' W 009°12'2 3.1
2018-Aug-13 00:27N 38°01' W 009°12'3 3.1
2018-Aug-12 23:33N 38°03' W 009°10'0 3.1
2018-Aug-12 23:29N 38°04' W 009°10'2 4.3
2018-Aug-12 23:01N 38°05' W 009°09'3 6.0
2018-Aug-12 22:30N 38°05' W 009°05'4 8.1
2018-Aug-12 22:00N 38°03' W 009°01'4 7.8
2018-Aug-12 21:31N 37°60' W 008°58'4 7.0
2018-Aug-12 21:00N 37°57' W 008°55'2 4.0
2018-Aug-12 20:31N 37°57' W 008°52'0 0.0
2018-Aug-12 20:00N 37°57' W 008°52'0 0.0
2018-Aug-12 19:30N 37°57' W 008°52'0 0.0
2018-Aug-12 19:01N 37°57' W 008°52'0 0.0
2018-Aug-12 18:31N 37°57' W 008°52'0 0.0
2018-Aug-12 18:01N 37°57' W 008°52'3 6.1
2018-Aug-12 17:30N 37°55' W 008°55'4 8.0
2018-Aug-12 17:01N 37°54' W 009°00'4 7.7
2018-Aug-12 16:30N 37°53' W 009°05'4 7.5
2018-Aug-12 16:01N 37°52' W 009°10'1 1.0
2018-Aug-12 15:30N 37°52' W 009°10'1 2.8
2018-Aug-12 15:01N 37°51' W 009°10'1 2.8
2018-Aug-12 14:30N 37°50' W 009°10'2 2.9
2018-Aug-12 13:57N 37°48' W 009°09'2 1.0
2018-Aug-12 11:46N 37°46' W 009°09'1 2.8
2018-Aug-12 11:20N 37°47' W 009°10'1 2.8
2018-Aug-12 11:01N 37°48' W 009°10'2 3.1
2018-Aug-12 10:30N 37°49' W 009°11'1 1.3
2018-Aug-12 10:00N 37°50' W 009°11'1 2.3
2018-Aug-12 09:30N 37°49' W 009°11'1 0.3
2018-Aug-12 06:16N 37°48' W 009°09'1 2.6
2018-Aug-12 05:59N 37°49' W 009°10'1 2.4
2018-Aug-12 05:30N 37°50' W 009°11'0 0.4
2018-Aug-12 04:57N 37°50' W 009°11'1 3.1
2018-Aug-12 04:30N 37°51' W 009°11'2 3.1
2018-Aug-12 04:00N 37°53' W 009°12'2 3.0
2018-Aug-12 03:30N 37°54' W 009°12'2 3.1
2018-Aug-12 03:00N 37°56' W 009°12'2 3.1
2018-Aug-12 02:30N 37°57' W 009°12'2 3.2
2018-Aug-12 02:00N 37°59' W 009°11'2 3.1
2018-Aug-12 01:30N 38°00' W 009°10'1 2.9
2018-Aug-12 01:01N 38°02' W 009°09'1 2.1
2018-Aug-12 00:30N 38°03' W 009°09'0 0.8
2018-Aug-12 00:00N 38°03' W 009°10'2 3.1
2018-Aug-11 23:30N 38°01' W 009°10'2 3.1
2018-Aug-11 23:00N 37°60' W 009°11'1 3.0
2018-Aug-11 22:30N 37°58' W 009°12'2 3.0
2018-Aug-11 22:00N 37°57' W 009°12'1 3.0
2018-Aug-11 21:30N 37°55' W 009°13'1 2.9
2018-Aug-11 21:00N 37°54' W 009°13'1 2.9
2018-Aug-11 20:30N 37°53' W 009°12'2 4.5
2018-Aug-11 19:58N 37°51' W 009°10'0 0.9
2018-Aug-11 19:30N 37°51' W 009°10'1 2.8
2018-Aug-11 19:00N 37°49' W 009°10'2 2.8
2018-Aug-11 18:26N 37°48' W 009°09'1 2.9
2018-Aug-11 17:58N 37°46' W 009°08'1 2.0
2018-Aug-11 17:30N 37°45' W 009°09'1 2.8
2018-Aug-11 17:00N 37°47' W 009°10'1 2.8
2018-Aug-11 16:28N 37°48' W 009°10'1 2.6
2018-Aug-11 16:00N 37°49' W 009°11'1 2.6
2018-Aug-11 15:27N 37°51' W 009°11'1 1.5
2018-Aug-11 15:00N 37°50' W 009°11'1 2.8
2018-Aug-11 14:30N 37°49' W 009°10'1 2.8
2018-Aug-11 14:00N 37°47' W 009°10'1 2.9
2018-Aug-11 13:29N 37°46' W 009°09'1 2.7
2018-Aug-11 13:00N 37°45' W 009°08'1 1.0
2018-Aug-11 12:28N 37°45' W 009°07'1 2.8
2018-Aug-11 12:00N 37°46' W 009°08'2 2.8
2018-Aug-11 11:18N 37°48' W 009°09'1 2.8
2018-Aug-11 11:00N 37°49' W 009°09'2 3.4
2018-Aug-11 10:30N 37°50' W 009°10'0 0.7
2018-Aug-11 10:01N 37°50' W 009°10'3 0.8
2018-Aug-11 06:42N 37°47' W 009°09'1 2.8
2018-Aug-11 06:30N 37°48' W 009°09'1 2.8
2018-Aug-11 06:00N 37°49' W 009°10'1 1.1
2018-Aug-11 05:18N 37°50' W 009°11'0 0.6
2018-Aug-11 04:56N 37°50' W 009°11'1 3.1
2018-Aug-11 04:30N 37°51' W 009°11'1 3.0
2018-Aug-11 04:00N 37°53' W 009°12'2 3.1
2018-Aug-11 03:30N 37°54' W 009°12'2 3.0
2018-Aug-11 03:00N 37°56' W 009°12'1 3.0
2018-Aug-11 02:31N 37°57' W 009°12'2 3.0
2018-Aug-11 02:00N 37°59' W 009°11'2 3.1
2018-Aug-11 01:30N 37°60' W 009°10'2 3.6
2018-Aug-11 01:00N 38°02' W 009°09'0 0.5
2018-Aug-11 00:30N 38°02' W 009°09'1 1.4
2018-Aug-11 00:00N 38°01' W 009°09'1 3.1
2018-Aug-10 23:30N 37°60' W 009°10'1 3.0
2018-Aug-10 23:00N 37°58' W 009°11'1 2.9
2018-Aug-10 22:30N 37°57' W 009°12'1 2.8
2018-Aug-10 22:00N 37°56' W 009°12'1 2.9
2018-Aug-10 21:30N 37°54' W 009°12'2 3.1
2018-Aug-10 21:01N 37°53' W 009°12'2 3.0
2018-Aug-10 20:30N 37°51' W 009°11'1 3.0
2018-Aug-10 20:00N 37°50' W 009°11'1 1.8
2018-Aug-10 19:30N 37°51' W 009°11'0 0.4
2018-Aug-10 19:00N 37°51' W 009°11'1 2.6
2018-Aug-10 18:30N 37°49' W 009°11'1 2.7
2018-Aug-10 18:00N 37°48' W 009°10'2 2.7
2018-Aug-10 17:21N 37°46' W 009°09'1 2.7
2018-Aug-10 17:00N 37°46' W 009°09'2 2.9
2018-Aug-10 16:27N 37°45' W 009°07'1 2.9
2018-Aug-10 16:00N 37°46' W 009°08'  

Dump ship's entire track history